createdAt,value
2019-06-07T00:02:18.822Z,91.40
2019-06-07T00:04:48.331Z,91.60
2019-06-07T00:07:21.435Z,91.60
2019-06-07T00:09:48.653Z,91.70
2019-06-07T00:12:21.434Z,91.60
2019-06-07T00:14:48.971Z,91.80
2019-06-07T00:17:20.236Z,91.70
2019-06-07T00:19:49.360Z,91.90
2019-06-07T00:22:31.628Z,91.90
2019-06-07T00:24:49.967Z,91.70
2019-06-07T00:27:22.278Z,91.70
2019-06-07T00:29:50.291Z,91.50
2019-06-07T00:32:21.980Z,91.70
2019-06-07T00:34:50.784Z,91.80
2019-06-07T00:37:31.973Z,91.90
2019-06-07T00:40:13.934Z,92.00
2019-06-07T00:42:32.451Z,92.00
2019-06-07T00:45:01.736Z,92.00
2019-06-07T00:47:31.103Z,92.00
2019-06-07T00:50:01.056Z,91.90
2019-06-07T00:55:01.379Z,92.00
2019-06-07T00:57:30.741Z,91.90
2019-06-07T01:00:00.038Z,92.00
2019-06-07T01:02:31.728Z,92.10
2019-06-07T01:05:00.362Z,92.00
2019-06-07T01:07:29.675Z,92.10
2019-06-07T01:09:58.962Z,91.70
2019-06-07T01:12:28.286Z,92.50
2019-06-07T01:14:57.653Z,92.60
2019-06-07T01:17:40.965Z,92.50
2019-06-07T01:20:00.141Z,92.30
2019-06-07T01:22:29.677Z,92.30
2019-06-07T01:24:59.028Z,92.40
2019-06-07T01:27:28.716Z,92.40
2019-06-07T01:29:58.324Z,92.40
2019-06-07T01:32:31.501Z,92.50
2019-06-07T01:34:58.618Z,92.70
2019-06-07T01:37:30.107Z,92.40
2019-06-07T01:39:58.967Z,92.50
2019-06-07T01:42:29.424Z,92.50
2019-06-07T01:44:59.319Z,92.50
2019-06-07T01:47:31.691Z,92.50
2019-06-07T01:50:00.117Z,92.50
2019-06-07T01:52:29.786Z,92.40
2019-06-07T01:54:59.379Z,92.50
2019-06-07T01:57:44.612Z,92.80
2019-06-07T01:59:59.807Z,92.70
2019-06-07T02:02:31.624Z,92.70
2019-06-07T02:05:00.410Z,92.80
2019-06-07T02:07:32.936Z,92.80
2019-06-07T02:10:00.742Z,92.80
2019-06-07T02:12:40.318Z,92.90
2019-06-07T02:15:01.079Z,92.70
2019-06-07T02:17:32.899Z,92.80
2019-06-07T02:20:01.563Z,92.50
2019-06-07T02:22:32.535Z,92.90
2019-06-07T02:25:37.206Z,92.90
2019-06-07T02:27:33.387Z,92.80
2019-06-07T02:30:35.685Z,93.00
2019-06-07T02:32:36.632Z,92.90
2019-06-07T02:35:08.158Z,92.90
2019-06-07T02:37:37.752Z,92.70
2019-06-07T02:40:08.399Z,92.80
2019-06-07T02:42:41.888Z,92.80
2019-06-07T02:45:10.907Z,92.80
2019-06-07T02:47:43.546Z,92.80
2019-06-07T02:50:14.818Z,93.20
2019-06-07T02:52:44.125Z,92.90
2019-06-07T02:55:13.624Z,93.00
2019-06-07T02:57:43.350Z,93.00
2019-06-07T03:00:41.328Z,93.10
2019-06-07T03:02:45.559Z,92.90
2019-06-07T03:05:15.227Z,93.00
2019-06-07T03:07:47.014Z,93.20
2019-06-07T03:10:16.398Z,93.20
2019-06-07T03:12:48.059Z,93.10
2019-06-07T03:15:32.598Z,93.10
2019-06-07T03:17:51.808Z,93.20
2019-06-07T03:20:27.402Z,93.20
2019-06-07T03:22:59.932Z,93.10
2019-06-07T03:25:35.703Z,93.00
2019-06-07T03:28:03.545Z,93.20
2019-06-07T03:30:48.274Z,93.20
2019-06-07T03:33:04.132Z,93.20
2019-06-07T03:35:35.303Z,93.10
2019-06-07T03:38:04.431Z,93.30
2019-06-07T03:40:36.925Z,93.40
2019-06-07T03:43:04.730Z,93.40
2019-06-07T03:45:37.920Z,93.30
2019-06-07T03:48:05.041Z,93.30
2019-06-07T03:50:38.747Z,93.50
2019-06-07T03:53:06.353Z,93.50
2019-06-07T03:55:40.518Z,93.40
2019-06-07T04:00:42.738Z,93.50
2019-06-07T04:03:09.864Z,93.30
2019-06-07T04:05:42.948Z,93.20
2019-06-07T04:08:10.167Z,93.30
2019-06-07T04:10:55.961Z,93.30
2019-06-07T04:13:10.655Z,93.40
2019-06-07T04:15:41.465Z,93.30
2019-06-07T04:18:11.104Z,93.30
2019-06-07T04:20:41.422Z,93.50
2019-06-07T04:23:27.336Z,93.80
2019-06-07T04:25:42.814Z,93.40
2019-06-07T04:28:12.308Z,93.30
2019-06-07T04:30:45.695Z,93.50
2019-06-07T04:33:14.335Z,93.50
2019-06-07T04:35:45.260Z,93.30
2019-06-07T04:38:14.862Z,93.40
2019-06-07T04:40:44.824Z,93.40
2019-06-07T04:43:14.115Z,93.80
2019-06-07T04:45:50.910Z,93.30
2019-06-07T04:48:14.434Z,93.40
2019-06-07T04:50:44.324Z,93.60
2019-06-07T04:53:13.757Z,93.30
2019-06-07T04:55:44.015Z,93.40
2019-06-07T04:58:13.331Z,93.50
2019-06-07T05:00:58.396Z,93.50
2019-06-07T05:03:13.675Z,93.40
2019-06-07T05:05:43.802Z,93.40
2019-06-07T05:08:27.711Z,93.40
2019-06-07T05:10:44.407Z,93.50
2019-06-07T05:13:13.710Z,93.50
2019-06-07T05:15:43.088Z,93.50
2019-06-07T05:18:12.391Z,93.50
2019-06-07T05:20:44.648Z,93.40
2019-06-07T05:23:59.429Z,93.40
2019-06-07T05:25:44.743Z,93.50
2019-06-07T05:28:14.544Z,93.40
2019-06-07T05:31:03.423Z,93.30
2019-06-07T05:33:14.876Z,93.10
2019-06-07T05:35:44.167Z,92.80
2019-06-07T05:38:13.467Z,92.50
2019-06-07T05:40:48.531Z,92.40
2019-06-07T05:43:26.023Z,92.40
2019-06-07T05:45:55.660Z,92.10
2019-06-07T05:48:24.973Z,92.10
2019-06-07T05:50:57.883Z,92.00
2019-06-07T05:53:25.284Z,91.80
2019-06-07T05:55:54.579Z,91.50
2019-06-07T05:58:23.924Z,91.10
2019-06-07T06:00:53.228Z,91.10
2019-06-07T06:03:22.547Z,91.00
2019-06-07T06:05:55.175Z,90.80
2019-06-07T06:08:22.861Z,90.70
2019-06-07T06:10:53.134Z,90.60
2019-06-07T06:13:22.591Z,90.40
2019-06-07T06:16:01.284Z,90.40
2019-06-07T06:18:22.919Z,90.30
2019-06-07T06:21:15.454Z,90.30
2019-06-07T06:23:23.243Z,89.10
2019-06-07T06:25:57.126Z,89.00
2019-06-07T06:28:23.555Z,88.20
2019-06-07T06:30:52.891Z,88.00
2019-06-07T06:33:33.579Z,87.60
2019-06-07T06:35:53.216Z,87.60
2019-06-07T06:38:22.535Z,88.20
2019-06-07T06:41:11.797Z,86.80
2019-06-07T06:43:22.980Z,84.60
2019-06-07T06:45:52.284Z,84.80
2019-06-07T06:48:21.595Z,84.60
2019-06-07T06:50:52.676Z,85.30
2019-06-07T06:53:21.931Z,84.10
2019-06-07T06:55:51.522Z,82.60
2019-06-07T06:58:20.915Z,83.80
2019-06-07T07:01:04.861Z,83.20
2019-06-07T07:03:57.670Z,82.30
2019-06-07T07:05:55.404Z,82.00
2019-06-07T07:08:25.077Z,81.80
2019-06-07T07:10:55.086Z,81.20
2019-06-07T07:13:24.673Z,80.60
2019-06-07T07:15:57.880Z,79.30
2019-06-07T07:18:24.963Z,78.60
2019-06-07T07:20:57.264Z,78.10
2019-06-07T07:23:25.733Z,76.90
2019-06-07T07:25:59.308Z,76.60
2019-06-07T07:28:26.319Z,76.90
2019-06-07T07:30:57.079Z,74.60
2019-06-07T07:34:19.871Z,75.90
2019-06-07T07:36:28.719Z,75.40
2019-06-07T07:38:28.980Z,76.30
2019-06-07T07:41:08.953Z,76.00
2019-06-07T07:43:29.463Z,76.00
2019-06-07T07:46:02.843Z,74.40
2019-06-07T07:48:30.103Z,73.50
2019-06-07T07:51:00.809Z,71.40
2019-06-07T07:53:47.552Z,71.40
2019-06-07T07:56:01.595Z,72.50
2019-06-07T07:58:31.391Z,72.10
2019-06-07T08:01:09.983Z,71.70
2019-06-07T08:03:32.778Z,71.10
2019-06-07T08:06:02.103Z,70.80
2019-06-07T08:08:31.405Z,70.30
2019-06-07T08:11:02.134Z,71.00
2019-06-07T08:13:31.987Z,71.40
2019-06-07T08:16:10.642Z,71.80
2019-06-07T08:18:32.326Z,72.20
2019-06-07T08:21:21.519Z,70.90
2019-06-07T08:23:32.704Z,72.00
2019-06-07T08:26:03.150Z,69.60
2019-06-07T08:28:32.450Z,71.50
2019-06-07T08:31:06.774Z,71.90
2019-06-07T08:33:32.767Z,70.70
2019-06-07T08:36:12.009Z,69.90
2019-06-07T08:38:46.955Z,69.70
2019-06-07T08:41:11.867Z,70.30
2019-06-07T08:43:38.010Z,68.70
2019-06-07T08:46:08.153Z,69.60
2019-06-07T08:48:37.597Z,68.50
2019-06-07T08:51:08.598Z,69.20
2019-06-07T08:53:38.000Z,67.60
2019-06-07T08:56:10.879Z,67.50
2019-06-07T08:58:40.458Z,67.40
2019-06-07T09:01:09.555Z,67.80
2019-06-07T09:03:39.353Z,66.30
2019-06-07T09:06:53.947Z,65.30
2019-06-07T09:08:39.712Z,63.90
2019-06-07T09:11:11.062Z,63.90
2019-06-07T09:13:40.028Z,65.20
2019-06-07T09:16:09.347Z,65.70
2019-06-07T09:18:43.724Z,64.10
2019-06-07T09:21:10.027Z,64.70
2019-06-07T09:23:39.532Z,62.50
2019-06-07T09:26:17.773Z,63.70
2019-06-07T09:28:40.043Z,64.90
2019-06-07T09:31:11.931Z,62.90
2019-06-07T09:33:40.347Z,61.90
2019-06-07T09:36:12.924Z,64.00
2019-06-07T09:38:41.402Z,63.20
2019-06-07T09:41:10.738Z,63.10
2019-06-07T09:44:01.315Z,64.40
2019-06-07T09:46:14.701Z,61.50
2019-06-07T09:51:19.784Z,62.70
2019-06-07T09:53:44.207Z,61.50
2019-06-07T09:56:13.531Z,62.50
2019-06-07T09:58:52.688Z,62.30
2019-06-07T10:01:14.196Z,59.10
2019-06-07T10:03:43.593Z,59.80
2019-06-07T10:06:13.821Z,60.40
2019-06-07T10:10:08.252Z,59.30
2019-06-07T10:11:17.390Z,60.70
2019-06-07T10:13:46.693Z,59.70
2019-06-07T10:16:16.041Z,60.10
2019-06-07T10:18:45.416Z,59.90
2019-06-07T10:21:15.472Z,59.60
2019-06-07T10:23:45.151Z,60.60
2019-06-07T10:26:14.473Z,59.60
2019-06-07T10:28:43.846Z,60.50
2019-06-07T10:31:13.431Z,59.20
2019-06-07T10:33:42.791Z,61.30
2019-06-07T10:36:12.128Z,59.10
2019-06-07T10:38:41.425Z,60.10
2019-06-07T10:41:11.883Z,59.20
2019-06-07T10:43:41.290Z,60.50
2019-06-07T10:46:12.049Z,58.90
2019-06-07T10:48:41.548Z,60.00
2019-06-07T10:51:12.369Z,59.70
2019-06-07T10:53:41.872Z,57.60
2019-06-07T10:56:11.224Z,58.10
2019-06-07T10:58:40.686Z,56.70
2019-06-07T11:01:12.392Z,57.00
2019-06-07T11:03:41.031Z,57.10
2019-06-07T11:06:10.325Z,57.90
2019-06-07T11:08:39.620Z,57.50
2019-06-07T11:11:09.993Z,57.30
2019-06-07T11:13:39.511Z,56.80
2019-06-07T11:16:08.890Z,58.30
2019-06-07T11:18:38.195Z,55.70
2019-06-07T11:21:07.979Z,57.30
2019-06-07T11:23:37.376Z,56.20
2019-06-07T11:26:06.691Z,56.50
2019-06-07T11:28:36.004Z,56.20
2019-06-07T11:31:06.319Z,56.20
2019-06-07T11:33:35.785Z,55.00
2019-06-07T11:36:06.574Z,55.20
2019-06-07T11:38:36.095Z,54.80
2019-06-07T11:41:05.403Z,54.80
2019-06-07T11:43:34.746Z,55.80
2019-06-07T11:46:04.270Z,56.40
2019-06-07T11:48:33.604Z,56.70
2019-06-07T11:51:02.927Z,56.10
2019-06-07T11:53:32.370Z,55.40
2019-06-07T11:56:02.825Z,54.50
2019-06-07T11:58:32.115Z,55.70
2019-06-07T12:01:01.456Z,55.80
2019-06-07T12:03:30.938Z,56.00
2019-06-07T12:06:00.236Z,55.70
2019-06-07T12:08:29.695Z,55.20
2019-06-07T12:11:12.216Z,55.90
2019-06-07T12:13:43.820Z,55.00
2019-06-07T12:16:13.523Z,57.40
2019-06-07T12:18:42.894Z,56.30
2019-06-07T12:21:13.535Z,55.50
2019-06-07T12:23:42.987Z,54.30
2019-06-07T12:26:12.347Z,55.90
2019-06-07T12:28:41.670Z,55.20
2019-06-07T12:31:10.998Z,54.70
2019-06-07T12:33:40.275Z,55.40
2019-06-07T12:36:09.648Z,54.00
2019-06-07T12:38:38.970Z,53.90
2019-06-07T12:41:08.269Z,55.60
2019-06-07T12:43:37.579Z,54.30
2019-06-07T12:46:06.871Z,53.90
2019-06-07T12:48:36.215Z,56.50
2019-06-07T12:51:05.875Z,55.80
2019-06-07T12:53:35.176Z,55.70
2019-06-07T12:56:04.599Z,54.70
2019-06-07T12:58:37.360Z,53.50
2019-06-07T13:01:05.461Z,54.50
2019-06-07T13:03:34.809Z,54.50
2019-06-07T13:06:04.156Z,53.70
2019-06-07T13:08:33.473Z,55.10
2019-06-07T13:11:14.870Z,55.30
2019-06-07T13:13:33.767Z,54.50
2019-06-07T13:16:03.160Z,57.20
2019-06-07T13:18:32.556Z,53.60
2019-06-07T13:21:01.925Z,53.90
2019-06-07T13:23:31.488Z,54.20
2019-06-07T13:26:00.788Z,53.70
2019-06-07T13:28:30.147Z,55.90
2019-06-07T13:30:59.477Z,56.40
2019-06-07T13:33:34.095Z,53.90
2019-06-07T13:35:59.895Z,54.50
2019-06-07T13:38:29.395Z,55.80
2019-06-07T13:40:58.783Z,55.60
2019-06-07T13:43:28.356Z,57.40
2019-06-07T13:45:57.769Z,55.80
2019-06-07T13:48:28.282Z,57.10
2019-06-07T13:50:57.579Z,57.30
2019-06-07T13:53:26.893Z,57.20
2019-06-07T13:55:56.185Z,57.00
2019-06-07T13:58:26.520Z,58.10
2019-06-07T14:00:55.851Z,57.30
2019-06-07T14:03:29.291Z,55.60
2019-06-07T14:05:56.247Z,56.40
2019-06-07T14:08:25.544Z,54.00
2019-06-07T14:10:54.854Z,55.20
2019-06-07T14:13:24.184Z,55.80
2019-06-07T14:15:53.531Z,54.10
2019-06-07T14:18:24.430Z,55.70
2019-06-07T14:20:54.944Z,55.80
2019-06-07T14:23:44.230Z,55.30
2019-06-07T14:25:55.253Z,56.00
2019-06-07T14:28:27.183Z,55.00
2019-06-07T14:30:55.576Z,54.70
2019-06-07T14:33:26.936Z,54.40
2019-06-07T14:35:56.154Z,54.60
2019-06-07T14:38:27.318Z,54.60
2019-06-07T14:40:56.899Z,55.20
2019-06-07T14:43:27.593Z,55.00
2019-06-07T14:45:57.072Z,56.10
2019-06-07T14:48:27.893Z,54.70
2019-06-07T14:50:57.426Z,54.60
2019-06-07T14:53:26.739Z,53.90
2019-06-07T14:56:09.694Z,56.10
2019-06-07T14:58:43.260Z,55.20
2019-06-07T15:01:11.046Z,55.30
2019-06-07T15:03:40.341Z,55.50
2019-06-07T15:06:09.905Z,55.70
2019-06-07T15:08:39.259Z,56.10
2019-06-07T15:11:08.568Z,55.60
2019-06-07T15:13:37.875Z,55.40
2019-06-07T15:16:08.026Z,56.40
2019-06-07T15:18:37.932Z,55.60
2019-06-07T15:21:08.505Z,56.60
2019-06-07T15:23:39.251Z,57.50
2019-06-07T15:26:08.775Z,58.20
2019-06-07T15:28:38.466Z,58.30
2019-06-07T15:31:07.937Z,56.90
2019-06-07T15:33:38.412Z,57.80
2019-06-07T15:36:07.829Z,57.80
2019-06-07T15:38:37.301Z,57.50
2019-06-07T15:41:06.768Z,57.80
2019-06-07T15:43:37.288Z,58.30
2019-06-07T15:46:07.851Z,58.40
2019-06-07T15:48:38.280Z,58.00
2019-06-07T15:51:08.976Z,59.80
2019-06-07T15:53:44.053Z,59.60
2019-06-07T15:56:09.281Z,59.70
2019-06-07T15:58:39.431Z,60.80
2019-06-07T16:01:09.862Z,61.30
2019-06-07T16:03:39.849Z,62.20
2019-06-07T16:06:09.336Z,59.90
2019-06-07T16:08:38.710Z,61.30
2019-06-07T16:11:08.119Z,62.10
2019-06-07T16:13:38.697Z,63.40
2019-06-07T16:16:08.334Z,64.00
2019-06-07T16:18:39.546Z,63.60
2019-06-07T16:21:08.814Z,65.00
2019-06-07T16:23:38.104Z,64.20
2019-06-07T16:26:07.403Z,65.80
2019-06-07T16:28:36.711Z,66.70
2019-06-07T16:31:06.015Z,67.20
2019-06-07T16:33:35.316Z,69.30
2019-06-07T16:36:04.615Z,69.10
2019-06-07T16:38:33.913Z,71.80
2019-06-07T16:41:03.220Z,73.90
2019-06-07T16:43:32.519Z,76.50
2019-06-07T16:46:01.821Z,78.20
2019-06-07T16:48:31.112Z,79.60
2019-06-07T16:51:00.443Z,80.50
2019-06-07T16:53:29.743Z,79.80
2019-06-07T16:55:59.047Z,81.10
2019-06-07T16:58:28.355Z,80.40
2019-06-07T17:00:58.126Z,82.20
2019-06-07T17:03:28.888Z,83.50
2019-06-07T17:05:58.194Z,83.80
2019-06-07T17:08:27.479Z,85.30
2019-06-07T17:10:56.780Z,85.80
2019-06-07T17:13:33.386Z,86.50
2019-06-07T17:15:57.088Z,88.10
2019-06-07T17:18:26.383Z,89.80
2019-06-07T17:20:55.675Z,90.10
2019-06-07T17:23:25.064Z,90.40
2019-06-07T17:25:54.357Z,89.40
2019-06-07T17:28:23.669Z,89.50
2019-06-07T17:30:52.952Z,90.50
2019-06-07T17:33:22.311Z,90.70
2019-06-07T17:35:51.613Z,90.80
2019-06-07T17:38:20.920Z,90.90
2019-06-07T17:40:51.207Z,91.20
2019-06-07T17:43:20.591Z,91.00
2019-06-07T17:45:49.904Z,91.10
2019-06-07T17:48:19.240Z,91.10
2019-06-07T17:50:49.888Z,90.90
2019-06-07T17:53:19.319Z,90.90
2019-06-07T17:55:48.608Z,90.80
2019-06-07T17:58:17.908Z,90.40
2019-06-07T18:00:51.046Z,90.30
2019-06-07T18:03:21.237Z,90.20
2019-06-07T18:05:51.368Z,90.50
2019-06-07T18:08:22.323Z,89.30
2019-06-07T18:10:52.096Z,89.60
2019-06-07T18:13:21.395Z,90.10
2019-06-07T18:15:55.553Z,90.00
2019-06-07T18:18:21.924Z,90.00
2019-06-07T18:20:51.757Z,89.70
2019-06-07T18:23:21.591Z,90.00
2019-06-07T18:25:50.899Z,88.30
2019-06-07T18:28:20.205Z,90.10
2019-06-07T18:30:50.769Z,89.80
2019-06-07T18:33:20.165Z,87.10
2019-06-07T18:35:49.443Z,87.50
2019-06-07T18:38:18.739Z,88.80
2019-06-07T18:40:49.118Z,87.60
2019-06-07T18:43:18.527Z,87.00
2019-06-07T18:45:49.008Z,88.10
2019-06-07T18:48:18.698Z,86.80
2019-06-07T18:50:48.583Z,86.00
2019-06-07T18:53:18.088Z,88.70
2019-06-07T18:55:47.833Z,86.20
2019-06-07T18:58:17.363Z,88.30
2019-06-07T19:00:47.314Z,85.10
2019-06-07T19:03:16.831Z,88.30
2019-06-07T19:05:46.123Z,86.20
2019-06-07T19:08:15.416Z,86.90
2019-06-07T19:10:44.708Z,86.80
2019-06-07T19:13:14.008Z,86.80
2019-06-07T19:15:43.556Z,85.80
2019-06-07T19:18:12.983Z,84.80
2019-06-07T19:20:42.303Z,85.40
2019-06-07T19:23:11.585Z,85.80
2019-06-07T19:25:41.843Z,84.70
2019-06-07T19:28:12.135Z,83.60
2019-06-07T19:30:41.423Z,85.20
2019-06-07T19:33:10.716Z,84.20
2019-06-07T19:35:40.027Z,84.90
2019-06-07T19:38:09.319Z,85.80
2019-06-07T19:40:38.622Z,84.50
2019-06-07T19:43:07.924Z,85.90
2019-06-07T19:45:37.224Z,86.10
2019-06-07T19:48:06.531Z,84.90
2019-06-07T19:50:35.830Z,85.70
2019-06-07T19:53:05.203Z,85.30
2019-06-07T19:55:34.508Z,85.40
2019-06-07T19:58:04.016Z,85.90
2019-06-07T20:00:33.538Z,85.70
2019-06-07T20:03:04.317Z,85.00
2019-06-07T20:05:34.229Z,84.40
2019-06-07T20:08:04.952Z,83.70
2019-06-07T20:10:34.531Z,83.40
2019-06-07T20:13:05.190Z,83.00
2019-06-07T20:15:34.703Z,83.30
2019-06-07T20:18:05.391Z,83.70
2019-06-07T20:20:36.031Z,84.00
2019-06-07T20:23:05.405Z,84.50
2019-06-07T20:25:34.691Z,84.00
2019-06-07T20:28:05.419Z,82.90
2019-06-07T20:30:34.932Z,83.10
2019-06-07T20:33:04.233Z,83.40
2019-06-07T20:35:33.520Z,83.60
2019-06-07T20:38:03.978Z,84.10
2019-06-07T20:40:33.826Z,82.30
2019-06-07T20:43:03.560Z,82.80
2019-06-07T20:45:34.346Z,83.90
2019-06-07T20:48:04.198Z,83.20
2019-06-07T20:50:33.662Z,83.70
2019-06-07T20:53:03.209Z,83.60
2019-06-07T20:55:32.603Z,84.30
2019-06-07T20:58:03.726Z,83.30
2019-06-07T21:00:33.081Z,83.10
2019-06-07T21:03:03.231Z,83.20
2019-06-07T21:05:32.658Z,83.40
2019-06-07T21:08:02.394Z,83.20
2019-06-07T21:10:33.002Z,83.60
2019-06-07T21:13:02.316Z,81.90
2019-06-07T21:15:31.613Z,81.20
2019-06-07T21:18:03.331Z,82.70
2019-06-07T21:20:34.022Z,83.10
2019-06-07T21:23:02.924Z,81.30
2019-06-07T21:25:32.221Z,81.00
2019-06-07T21:28:01.537Z,81.60
2019-06-07T21:30:30.832Z,82.90
2019-06-07T21:33:01.351Z,82.50
2019-06-07T21:35:31.032Z,80.90
2019-06-07T21:38:01.828Z,80.80
2019-06-07T21:40:31.343Z,80.70
2019-06-07T21:43:02.005Z,82.00
2019-06-07T21:45:31.500Z,82.30
2019-06-07T21:48:03.158Z,82.60
2019-06-07T21:50:31.792Z,82.70
2019-06-07T21:53:02.390Z,82.20
2019-06-07T21:55:31.859Z,81.80
2019-06-07T21:58:03.073Z,82.30
2019-06-07T22:00:56.678Z,83.40
2019-06-07T22:03:26.064Z,82.20
2019-06-07T22:05:55.367Z,82.70
2019-06-07T22:08:24.695Z,82.90
2019-06-07T22:10:54.003Z,84.20
2019-06-07T22:13:23.312Z,82.30
2019-06-07T22:15:52.603Z,82.30
2019-06-07T22:18:21.917Z,82.60
2019-06-07T22:20:51.260Z,82.40
2019-06-07T22:23:20.560Z,82.90
2019-06-07T22:25:49.923Z,82.20
2019-06-07T22:28:19.268Z,82.60
2019-06-07T22:30:48.652Z,82.80
2019-06-07T22:33:18.993Z,81.20
2019-06-07T22:35:49.389Z,81.40
2019-06-07T22:38:18.704Z,82.00
2019-06-07T22:40:47.996Z,81.50
2019-06-07T22:43:18.852Z,80.90
2019-06-07T22:45:48.393Z,81.00
2019-06-07T22:48:17.686Z,80.60
2019-06-07T22:50:46.976Z,81.30
2019-06-07T22:53:17.612Z,82.00
2019-06-07T22:55:48.679Z,80.20
2019-06-07T22:58:19.108Z,81.00
2019-06-07T23:00:48.445Z,81.50
2019-06-07T23:03:19.121Z,80.90
2019-06-07T23:05:48.635Z,80.70
2019-06-07T23:08:19.078Z,79.70
2019-06-07T23:10:49.443Z,80.10
2019-06-07T23:13:19.654Z,81.30
2019-06-07T23:15:49.136Z,81.70
2019-06-07T23:18:19.690Z,80.10
2019-06-07T23:20:49.219Z,80.30
2019-06-07T23:23:18.515Z,80.70
2019-06-07T23:25:47.811Z,81.00
2019-06-07T23:28:18.660Z,79.80
2019-06-07T23:30:48.055Z,80.00
2019-06-07T23:33:18.863Z,80.80
2019-06-07T23:35:48.217Z,80.60
2019-06-07T23:38:17.511Z,79.60
2019-06-07T23:40:46.813Z,79.90
2019-06-07T23:43:17.471Z,79.90
2019-06-07T23:45:47.872Z,80.00
2019-06-07T23:48:17.460Z,80.10
2019-06-07T23:50:46.871Z,80.30
2019-06-07T23:53:16.209Z,80.30
2019-06-07T23:55:45.504Z,79.50
2019-06-07T23:58:15.958Z,79.70
